»·PEaware :: N153MS KSBA-KLAS

N153MS :: KSBA-KLAS

FLIGHT INFORMATION

Flight Status: Arrived
Operator: Privately registered:
United States
More flights under this callsign
Pilot: Shane N. (25833)
Aircraft: MOONEY M-20K/M ENCORE BRAVO
(M20T)
More flights by this aircraft type
Origin: KSBA Santa Barbara Mun
United States
Destination: KLAS McCarran Intl
United States
More flights between these airports :: More routes between these airports
Route: ++ FIM + DAG CRESO4
File this flight plan on PilotEdge
Remarks:
Altitude:
(Current/Filed)
23,000ft
Speed:
(Current/Filed)
170kts
Departed: 13-Feb-20 07:02 PM
Arrived: 13-Feb-20 08:32 PM
Distance/Time
Traveled:
250nm/1:30
Distance/Time
To Go:
Arrived

Flight Plot

Page will automatically refresh every two minutes.

Flight plan parsing failed; only flown route is shown


Map Options




Map Legend


Flown Route
Filed Route
Departure Airport
Arrival Airport
Navaid (VOR, NDB)
Fix

Horizontal Profiles

Position Reports

Time Latitude Longitude Heading Altitude Ground
Speed
13-Feb-20 18:45 34.432723 -119.835615 71 14ft 0kts
13-Feb-20 18:46 34.432723 -119.835615 71 14ft 0kts
13-Feb-20 18:47 34.432723 -119.835615 71 14ft 0kts
13-Feb-20 18:48 34.432723 -119.835615 71 14ft 0kts
13-Feb-20 18:49 34.432723 -119.835615 71 14ft 0kts
13-Feb-20 18:50 34.432723 -119.835615 71 14ft 0kts
13-Feb-20 18:51 34.432723 -119.835615 71 14ft 0kts
13-Feb-20 18:52 34.432723 -119.835615 71 14ft 0kts
13-Feb-20 18:53 34.432723 -119.835615 71 14ft 0kts
13-Feb-20 18:54 34.432723 -119.835615 71 14ft 0kts
13-Feb-20 18:55 34.432723 -119.835615 71 14ft 0kts
13-Feb-20 18:56 34.432723 -119.835615 71 14ft 0kts
13-Feb-20 18:57 34.432723 -119.835615 71 14ft 0kts
13-Feb-20 18:58 34.432432 -119.835471 208 13ft 13kts
13-Feb-20 18:59 34.429039 -119.835014 108 12ft 6kts
13-Feb-20 19:00 34.428802 -119.834707 165 11ft 1kts
13-Feb-20 19:01 34.427650 -119.845253 266 117ft 102kts
13-Feb-20 19:02 34.426484 -119.881723 268 1844ft 110kts
13-Feb-20 19:04 34.426332 -119.921437 268 2907ft 133kts
13-Feb-20 19:05 34.425257 -119.967844 252 2908ft 141kts
13-Feb-20 19:06 34.389479 -119.968818 151 4341ft 140kts
13-Feb-20 19:07 34.357600 -119.949311 151 6214ft 126kts
13-Feb-20 19:08 34.326651 -119.928809 124 7907ft 129kts
13-Feb-20 19:09 34.327280 -119.885634 83 9558ft 133kts
13-Feb-20 19:10 34.329480 -119.840411 85 11210ft 137kts
13-Feb-20 19:11 34.331112 -119.794208 85 12828ft 140kts
13-Feb-20 19:12 34.332647 -119.746598 86 14427ft 144kts
13-Feb-20 19:13 34.334178 -119.697725 86 15998ft 147kts
13-Feb-20 19:14 34.335727 -119.647537 86 17543ft 151kts
13-Feb-20 19:15 34.337287 -119.596304 86 19052ft 155kts
13-Feb-20 19:16 34.338868 -119.543605 86 20537ft 159kts
13-Feb-20 19:17 34.340463 -119.489637 86 21989ft 163kts
13-Feb-20 19:18 34.342118 -119.432648 86 22999ft 191kts
13-Feb-20 19:19 34.344020 -119.360786 87 23000ft 226kts
13-Feb-20 19:20 34.346156 -119.283143 87 22999ft 233kts
13-Feb-20 19:20 34.347901 -119.219577 87 23000ft 235kts
13-Feb-20 19:22 34.350397 -119.126730 87 23000ft 236kts
13-Feb-20 19:23 34.352467 -119.047781 87 23000ft 236kts
13-Feb-20 19:23 34.354137 -118.982637 87 23000ft 236kts
13-Feb-20 19:25 34.356756 -118.891450 80 22999ft 236kts
13-Feb-20 19:26 34.378517 -118.817464 67 23000ft 236kts
13-Feb-20 19:26 34.399086 -118.755948 69 22998ft 236kts
13-Feb-20 19:27 34.419718 -118.680214 71 23000ft 236kts
13-Feb-20 19:29 34.443528 -118.591405 71 23000ft 236kts
13-Feb-20 19:29 34.460438 -118.528145 71 23000ft 236kts
13-Feb-20 19:30 34.480786 -118.451822 71 23000ft 236kts
13-Feb-20 19:31 34.501014 -118.375739 71 23000ft 236kts
13-Feb-20 19:32 34.520803 -118.301099 71 23000ft 236kts
13-Feb-20 19:33 34.540913 -118.225035 71 23000ft 236kts
13-Feb-20 19:34 34.560808 -118.149570 71 23000ft 236kts
13-Feb-20 19:35 34.580828 -118.073420 71 23000ft 236kts
13-Feb-20 19:36 34.600837 -117.997091 71 23000ft 236kts
13-Feb-20 19:37 34.620727 -117.920998 71 23000ft 236kts
13-Feb-20 19:38 34.640642 -117.844592 71 23000ft 236kts
13-Feb-20 19:39 34.660517 -117.768124 71 23000ft 236kts
13-Feb-20 19:40 34.680382 -117.691470 71 23000ft 236kts
13-Feb-20 19:41 34.700145 -117.614988 71 23000ft 236kts
13-Feb-20 19:42 34.717702 -117.546856 71 23000ft 236kts
13-Feb-20 19:43 34.735860 -117.476206 71 23000ft 236kts
13-Feb-20 19:44 34.754304 -117.404247 71 23000ft 236kts
13-Feb-20 19:45 34.775496 -117.321328 72 23000ft 236kts
13-Feb-20 19:46 34.794973 -117.244888 72 23000ft 236kts
13-Feb-20 19:47 34.814468 -117.168144 72 23000ft 236kts
13-Feb-20 19:48 34.833870 -117.091543 72 23000ft 236kts
13-Feb-20 19:49 34.853425 -117.014047 72 22658ft 241kts
13-Feb-20 19:50 34.873045 -116.935945 72 21729ft 238kts
13-Feb-20 19:51 34.892295 -116.859221 72 20726ft 235kts
13-Feb-20 19:52 34.911109 -116.784042 72 19941ft 223kts
13-Feb-20 19:53 34.928982 -116.712528 72 19337ft 217kts
13-Feb-20 19:54 34.946394 -116.642579 72 19000ft 210kts
13-Feb-20 19:55 34.965521 -116.573057 63 19001ft 222kts
13-Feb-20 19:56 34.994909 -116.505255 60 19000ft 226kts
13-Feb-20 19:57 35.025080 -116.437230 60 19000ft 227kts
13-Feb-20 19:58 35.055333 -116.368977 60 19000ft 227kts
13-Feb-20 19:59 35.085598 -116.300508 61 18588ft 230kts
13-Feb-20 20:00 35.115615 -116.232424 61 17582ft 224kts
13-Feb-20 20:01 35.144710 -116.166402 61 16659ft 219kts
13-Feb-20 20:02 35.173441 -116.101085 61 15805ft 215kts
13-Feb-20 20:03 35.201502 -116.037170 61 15002ft 211kts
13-Feb-20 20:04 35.229405 -115.973489 61 14194ft 210kts
13-Feb-20 20:05 35.256974 -115.910448 61 13388ft 208kts
13-Feb-20 20:06 35.284360 -115.847710 61 12579ft 206kts
13-Feb-20 20:07 35.312441 -115.786487 51 11773ft 204kts
13-Feb-20 20:08 35.350170 -115.734397 47 10966ft 202kts
13-Feb-20 20:09 35.388092 -115.683714 47 10161ft 200kts
13-Feb-20 20:10 35.425317 -115.634050 46 9890ft 193kts
13-Feb-20 20:11 35.461730 -115.585392 46 9890ft 192kts
13-Feb-20 20:12 35.498947 -115.535561 46 9870ft 201kts
13-Feb-20 20:13 35.536727 -115.484898 46 9890ft 201kts
13-Feb-20 20:14 35.574328 -115.434413 46 9890ft 197kts
13-Feb-20 20:15 35.611194 -115.384865 46 9890ft 195kts
13-Feb-20 20:16 35.647058 -115.336643 47 9890ft 195kts
13-Feb-20 20:17 35.690970 -115.297220 26 9394ft 201kts
13-Feb-20 20:18 35.740767 -115.266753 26 8392ft 196kts
13-Feb-20 20:19 35.789423 -115.237808 21 7387ft 192kts
13-Feb-20 20:20 35.838855 -115.213882 21 6384ft 190kts
13-Feb-20 20:21 35.887555 -115.190276 21 5872ft 186kts
13-Feb-20 20:22 35.935775 -115.166774 21 5871ft 186kts
13-Feb-20 20:23 35.983134 -115.143677 21 5871ft 186kts
13-Feb-20 20:24 36.027090 -115.122224 21 5871ft 186kts
13-Feb-20 20:25 36.072215 -115.100185 21 5871ft 186kts
13-Feb-20 20:26 36.121829 -115.075957 21 5591ft 187kts
13-Feb-20 20:27 36.159247 -115.090590 273 4754ft 152kts
13-Feb-20 20:28 36.146793 -115.118903 231 3695ft 89kts
13-Feb-20 20:29 36.129172 -115.138562 206 2861ft 85kts
13-Feb-20 20:30 36.108015 -115.151542 202 2387ft 81kts
13-Feb-20 20:31 36.090344 -115.161774 204 2121ft 30kts
13-Feb-20 20:32 36.089411 -115.163477 296 2128ft 0kts
13-Feb-20 20:33 36.092217 -115.163155 26 2119ft 26kts
13-Feb-20 20:34 36.097030 -115.160368 26 2097ft 12kts
13-Feb-20 20:35 36.099456 -115.160034 311 2092ft 4kts
13-Feb-20 20:43 36.099470 -115.160117 231 2092ft 0kts
13-Feb-20 20:44 36.099470 -115.160117 231 2092ft 0kts
13-Feb-20 20:45 36.099470 -115.160117 231 2092ft 0kts

Navigation Log

Ident Type
Flight plan parsing failed, navigation log unavailable